Terminal Aerodrome Forecast
Issued by NWS

Home | Current Version | Previous Version | Text Only | Print | Product List | Glossary Off
Versions: 1 2 3 4 5 6 7 8 9 10 11 12 13 14 15 16

000
FTUS43 KFGF 170421 AAA
TAFBJI
TAF AMD
KBJI 170421Z 1704/1724 25008KT P6SM BKN015
      TEMPO 1708/1712 BKN025
     FM171200 27011KT P6SM BKN025
     FM171700 27011KT P6SM BKN040=

USA.gov is the U.S. government's official web portal to all federal, state and local government web resources and services.